sensor_id;sensor_type;location;lat;lon;timestamp;P1;durP1;ratioP1;P2;durP2;ratioP2
35743;SDS011;21867;52.012;4.324;2023-04-29T00:01:47;26.33;;;12.87;;
35743;SDS011;21867;52.012;4.324;2023-04-29T00:04:15;24.70;;;13.17;;
35743;SDS011;21867;52.012;4.324;2023-04-29T00:06:43;21.17;;;13.73;;
35743;SDS011;21867;52.012;4.324;2023-04-29T00:09:12;20.53;;;13.27;;
35743;SDS011;21867;52.012;4.324;2023-04-29T00:11:39;22.30;;;13.10;;
35743;SDS011;21867;52.012;4.324;2023-04-29T00:14:06;23.80;;;11.93;;
35743;SDS011;21867;52.012;4.324;2023-04-29T00:19:32;20.17;;;12.57;;
35743;SDS011;21867;52.012;4.324;2023-04-29T00:21:59;18.83;;;13.43;;
35743;SDS011;21867;52.012;4.324;2023-04-29T00:24:28;19.37;;;11.27;;
35743;SDS011;21867;52.012;4.324;2023-04-29T00:26:55;20.10;;;12.93;;
35743;SDS011;21867;52.012;4.324;2023-04-29T00:29:22;22.13;;;15.18;;
35743;SDS011;21867;52.012;4.324;2023-04-29T00:31:50;19.57;;;13.67;;
35743;SDS011;21867;52.012;4.324;2023-04-29T00:34:32;21.50;;;12.97;;
35743;SDS011;21867;52.012;4.324;2023-04-29T00:37:00;18.97;;;13.10;;
35743;SDS011;21867;52.012;4.324;2023-04-29T00:39:28;17.40;;;12.93;;
35743;SDS011;21867;52.012;4.324;2023-04-29T00:41:55;17.27;;;12.73;;
35743;SDS011;21867;52.012;4.324;2023-04-29T00:44:23;24.50;;;12.03;;
35743;SDS011;21867;52.012;4.324;2023-04-29T00:50:41;20.83;;;10.90;;
35743;SDS011;21867;52.012;4.324;2023-04-29T00:53:08;13.63;;;10.50;;
35743;SDS011;21867;52.012;4.324;2023-04-29T00:55:37;12.83;;;10.50;;
35743;SDS011;21867;52.012;4.324;2023-04-29T00:58:04;17.83;;;11.20;;
35743;SDS011;21867;52.012;4.324;2023-04-29T01:00:32;12.67;;;9.80;;
35743;SDS011;21867;52.012;4.324;2023-04-29T01:02:59;16.77;;;11.43;;
35743;SDS011;21867;52.012;4.324;2023-04-29T01:42:43;13.97;;;11.37;;
35743;SDS011;21867;52.012;4.324;2023-04-29T01:45:15;17.47;;;13.30;;
35743;SDS011;21867;52.012;4.324;2023-04-29T01:47:42;15.97;;;10.33;;
35743;SDS011;21867;52.012;4.324;2023-04-29T01:50:11;14.57;;;11.00;;
35743;SDS011;21867;52.012;4.324;2023-04-29T01:52:38;13.47;;;12.00;;
35743;SDS011;21867;52.012;4.324;2023-04-29T01:55:19;13.23;;;11.37;;
35743;SDS011;21867;52.012;4.324;2023-04-29T02:09:29;15.77;;;11.53;;
35743;SDS011;21867;52.012;4.324;2023-04-29T02:12:05;18.80;;;11.90;;
35743;SDS011;21867;52.012;4.324;2023-04-29T02:14:32;15.53;;;11.73;;
35743;SDS011;21867;52.012;4.324;2023-04-29T02:17:03;15.70;;;10.53;;
35743;SDS011;21867;52.012;4.324;2023-04-29T02:19:31;13.60;;;11.43;;
35743;SDS011;21867;52.012;4.324;2023-04-29T02:21:58;13.43;;;11.50;;
35743;SDS011;21867;52.012;4.324;2023-04-29T02:27:30;15.10;;;11.20;;
35743;SDS011;21867;52.012;4.324;2023-04-29T02:30:21;16.27;;;10.67;;
35743;SDS011;21867;52.012;4.324;2023-04-29T02:32:49;14.60;;;10.50;;
35743;SDS011;21867;52.012;4.324;2023-04-29T02:35:16;13.03;;;10.07;;
35743;SDS011;21867;52.012;4.324;2023-04-29T02:37:44;13.47;;;10.67;;
35743;SDS011;21867;52.012;4.324;2023-04-29T02:40:11;12.47;;;10.87;;
35743;SDS011;21867;52.012;4.324;2023-04-29T02:42:52;11.90;;;9.43;;
35743;SDS011;21867;52.012;4.324;2023-04-29T02:45:20;11.80;;;10.27;;
35743;SDS011;21867;52.012;4.324;2023-04-29T02:47:47;15.57;;;10.90;;
35743;SDS011;21867;52.012;4.324;2023-04-29T02:50:15;15.03;;;9.90;;
35743;SDS011;21867;52.012;4.324;2023-04-29T02:52:42;10.83;;;9.13;;
35743;SDS011;21867;52.012;4.324;2023-04-29T03:00:52;15.07;;;10.00;;
35743;SDS011;21867;52.012;4.324;2023-04-29T03:03:19;11.47;;;8.80;;
35743;SDS011;21867;52.012;4.324;2023-04-29T03:05:47;14.53;;;9.93;;
35743;SDS011;21867;52.012;4.324;2023-04-29T03:08:14;14.70;;;10.80;;
35743;SDS011;21867;52.012;4.324;2023-04-29T03:10:42;15.13;;;10.17;;
35743;SDS011;21867;52.012;4.324;2023-04-29T03:18:24;12.03;;;9.33;;
35743;SDS011;21867;52.012;4.324;2023-04-29T03:21:11;13.37;;;11.47;;
35743;SDS011;21867;52.012;4.324;2023-04-29T03:23:39;17.70;;;11.33;;
35743;SDS011;21867;52.012;4.324;2023-04-29T03:34:58;11.60;;;10.33;;
35743;SDS011;21867;52.012;4.324;2023-04-29T03:37:36;15.90;;;10.77;;
35743;SDS011;21867;52.012;4.324;2023-04-29T03:40:16;12.90;;;8.93;;
35743;SDS011;21867;52.012;4.324;2023-04-29T03:42:43;13.17;;;9.90;;
35743;SDS011;21867;52.012;4.324;2023-04-29T03:45:11;14.60;;;10.90;;
35743;SDS011;21867;52.012;4.324;2023-04-29T04:15:24;16.47;;;11.07;;
35743;SDS011;21867;52.012;4.324;2023-04-29T04:43:00;21.43;;;11.43;;
35743;SDS011;21867;52.012;4.324;2023-04-29T04:45:28;21.63;;;11.67;;
35743;SDS011;21867;52.012;4.324;2023-04-29T04:48:05;14.83;;;10.63;;
35743;SDS011;21867;52.012;4.324;2023-04-29T04:50:35;18.53;;;11.00;;
35743;SDS011;21867;52.012;4.324;2023-04-29T04:53:02;18.17;;;11.37;;
35743;SDS011;21867;52.012;4.324;2023-04-29T04:55:46;18.23;;;9.63;;
35743;SDS011;21867;52.012;4.324;2023-04-29T04:58:30;12.97;;;9.20;;
35743;SDS011;21867;52.012;4.324;2023-04-29T05:03:48;13.87;;;11.00;;
35743;SDS011;21867;52.012;4.324;2023-04-29T05:06:16;15.47;;;10.57;;
35743;SDS011;21867;52.012;4.324;2023-04-29T05:08:45;11.00;;;8.23;;
35743;SDS011;21867;52.012;4.324;2023-04-29T05:11:17;17.67;;;10.83;;
35743;SDS011;21867;52.012;4.324;2023-04-29T05:13:52;18.67;;;10.93;;
35743;SDS011;21867;52.012;4.324;2023-04-29T05:16:32;16.73;;;11.30;;
35743;SDS011;21867;52.012;4.324;2023-04-29T05:19:00;23.40;;;12.97;;
35743;SDS011;21867;52.012;4.324;2023-04-29T05:21:31;12.60;;;9.00;;
35743;SDS011;21867;52.012;4.324;2023-04-29T05:23:59;19.57;;;12.60;;
35743;SDS011;21867;52.012;4.324;2023-04-29T05:26:35;18.20;;;11.50;;
35743;SDS011;21867;52.012;4.324;2023-04-29T05:40:35;27.63;;;14.07;;
35743;SDS011;21867;52.012;4.324;2023-04-29T05:43:25;19.67;;;14.30;;
35743;SDS011;21867;52.012;4.324;2023-04-29T05:45:55;23.63;;;15.80;;
35743;SDS011;21867;52.012;4.324;2023-04-29T05:48:23;22.87;;;16.07;;
35743;SDS011;21867;52.012;4.324;2023-04-29T05:50:51;25.83;;;16.80;;
35743;SDS011;21867;52.012;4.324;2023-04-29T05:53:19;19.10;;;15.57;;
35743;SDS011;21867;52.012;4.324;2023-04-29T05:55:48;22.00;;;15.93;;
35743;SDS011;21867;52.012;4.324;2023-04-29T05:58:18;26.53;;;15.73;;
35743;SDS011;21867;52.012;4.324;2023-04-29T06:00:45;18.37;;;14.37;;
35743;SDS011;21867;52.012;4.324;2023-04-29T06:03:18;27.97;;;16.70;;
35743;SDS011;21867;52.012;4.324;2023-04-29T06:05:48;29.40;;;16.97;;
35743;SDS011;21867;52.012;4.324;2023-04-29T06:08:24;25.20;;;15.43;;
35743;SDS011;21867;52.012;4.324;2023-04-29T06:10:54;31.83;;;16.70;;
35743;SDS011;21867;52.012;4.324;2023-04-29T06:13:21;26.23;;;17.10;;
35743;SDS011;21867;52.012;4.324;2023-04-29T06:15:48;21.83;;;15.63;;
35743;SDS011;21867;52.012;4.324;2023-04-29T06:18:16;28.50;;;16.93;;
35743;SDS011;21867;52.012;4.324;2023-04-29T06:20:43;21.20;;;15.03;;
35743;SDS011;21867;52.012;4.324;2023-04-29T06:23:11;26.27;;;16.13;;
35743;SDS011;21867;52.012;4.324;2023-04-29T06:25:38;16.73;;;12.77;;
35743;SDS011;21867;52.012;4.324;2023-04-29T06:28:08;16.90;;;14.10;;
35743;SDS011;21867;52.012;4.324;2023-04-29T06:30:37;10.23;;;8.17;;
35743;SDS011;21867;52.012;4.324;2023-04-29T06:33:04;17.43;;;12.93;;
35743;SDS011;21867;52.012;4.324;2023-04-29T06:35:32;11.33;;;9.90;;
35743;SDS011;21867;52.012;4.324;2023-04-29T06:38:10;18.57;;;13.10;;
35743;SDS011;21867;52.012;4.324;2023-04-29T06:44:44;17.13;;;10.87;;
35743;SDS011;21867;52.012;4.324;2023-04-29T06:47:30;14.27;;;11.53;;
35743;SDS011;21867;52.012;4.324;2023-04-29T06:50:11;11.80;;;8.53;;
35743;SDS011;21867;52.012;4.324;2023-04-29T06:52:38;15.57;;;12.73;;
35743;SDS011;21867;52.012;4.324;2023-04-29T06:55:06;19.93;;;11.63;;
35743;SDS011;21867;52.012;4.324;2023-04-29T06:57:33;14.53;;;8.73;;
35743;SDS011;21867;52.012;4.324;2023-04-29T07:00:02;18.30;;;10.90;;
35743;SDS011;21867;52.012;4.324;2023-04-29T07:02:31;16.60;;;10.90;;
35743;SDS011;21867;52.012;4.324;2023-04-29T07:04:58;13.97;;;10.13;;
35743;SDS011;21867;52.012;4.324;2023-04-29T07:07:26;17.73;;;9.90;;
35743;SDS011;21867;52.012;4.324;2023-04-29T07:09:53;15.50;;;9.87;;
35743;SDS011;21867;52.012;4.324;2023-04-29T07:15:22;15.67;;;9.83;;
35743;SDS011;21867;52.012;4.324;2023-04-29T07:17:50;9.57;;;5.80;;
35743;SDS011;21867;52.012;4.324;2023-04-29T07:20:17;16.43;;;8.80;;
35743;SDS011;21867;52.012;4.324;2023-04-29T07:22:48;13.50;;;9.80;;
35743;SDS011;21867;52.012;4.324;2023-04-29T07:25:15;12.13;;;8.53;;
35743;SDS011;21867;52.012;4.324;2023-04-29T07:27:43;9.23;;;7.53;;
35743;SDS011;21867;52.012;4.324;2023-04-29T07:43:42;15.07;;;8.53;;
35743;SDS011;21867;52.012;4.324;2023-04-29T07:49:09;13.93;;;9.27;;
35743;SDS011;21867;52.012;4.324;2023-04-29T09:02:06;10.20;;;6.33;;
35743;SDS011;21867;52.012;4.324;2023-04-29T09:04:36;13.00;;;6.43;;
35743;SDS011;21867;52.012;4.324;2023-04-29T09:07:08;10.40;;;7.73;;
35743;SDS011;21867;52.012;4.324;2023-04-29T09:09:37;13.63;;;8.20;;
35743;SDS011;21867;52.012;4.324;2023-04-29T09:12:15;10.10;;;6.43;;
35743;SDS011;21867;52.012;4.324;2023-04-29T09:14:42;10.47;;;7.03;;
35743;SDS011;21867;52.012;4.324;2023-04-29T09:17:11;10.13;;;7.20;;
35743;SDS011;21867;52.012;4.324;2023-04-29T09:19:50;7.17;;;5.97;;
35743;SDS011;21867;52.012;4.324;2023-04-29T09:22:20;8.03;;;5.77;;
35743;SDS011;21867;52.012;4.324;2023-04-29T10:01:26;9.23;;;5.70;;
35743;SDS011;21867;52.012;4.324;2023-04-29T10:03:54;7.13;;;4.43;;
35743;SDS011;21867;52.012;4.324;2023-04-29T10:06:22;6.80;;;5.10;;
35743;SDS011;21867;52.012;4.324;2023-04-29T10:08:52;9.57;;;5.87;;
35743;SDS011;21867;52.012;4.324;2023-04-29T10:11:20;8.73;;;6.00;;
35743;SDS011;21867;52.012;4.324;2023-04-29T10:13:47;5.80;;;4.70;;
35743;SDS011;21867;52.012;4.324;2023-04-29T10:16:20;10.67;;;6.17;;
35743;SDS011;21867;52.012;4.324;2023-04-29T10:18:53;6.97;;;5.40;;
35743;SDS011;21867;52.012;4.324;2023-04-29T10:21:20;7.83;;;6.03;;
35743;SDS011;21867;52.012;4.324;2023-04-29T10:23:50;7.93;;;5.90;;
35743;SDS011;21867;52.012;4.324;2023-04-29T10:26:18;6.43;;;5.30;;
35743;SDS011;21867;52.012;4.324;2023-04-29T10:32:40;6.07;;;5.17;;
35743;SDS011;21867;52.012;4.324;2023-04-29T10:35:18;9.13;;;5.70;;
35743;SDS011;21867;52.012;4.324;2023-04-29T10:37:46;9.20;;;5.17;;
35743;SDS011;21867;52.012;4.324;2023-04-29T10:40:14;9.83;;;4.90;;
35743;SDS011;21867;52.012;4.324;2023-04-29T10:45:22;8.70;;;5.27;;
35743;SDS011;21867;52.012;4.324;2023-04-29T10:50:41;9.43;;;5.93;;
35743;SDS011;21867;52.012;4.324;2023-04-29T10:53:25;7.13;;;5.17;;
35743;SDS011;21867;52.012;4.324;2023-04-29T10:55:55;5.03;;;4.43;;
35743;SDS011;21867;52.012;4.324;2023-04-29T10:58:40;8.30;;;5.00;;
35743;SDS011;21867;52.012;4.324;2023-04-29T11:01:09;7.47;;;5.33;;
35743;SDS011;21867;52.012;4.324;2023-04-29T11:03:46;7.67;;;5.10;;
35743;SDS011;21867;52.012;4.324;2023-04-29T11:06:15;5.97;;;5.20;;
35743;SDS011;21867;52.012;4.324;2023-04-29T11:49:12;11.03;;;6.23;;
35743;SDS011;21867;52.012;4.324;2023-04-29T11:51:39;6.87;;;5.20;;
35743;SDS011;21867;52.012;4.324;2023-04-29T11:54:06;12.47;;;5.83;;
35743;SDS011;21867;52.012;4.324;2023-04-29T11:56:35;11.10;;;6.60;;
35743;SDS011;21867;52.012;4.324;2023-04-29T11:59:03;9.90;;;5.90;;
35743;SDS011;21867;52.012;4.324;2023-04-29T12:01:30;11.43;;;5.43;;
35743;SDS011;21867;52.012;4.324;2023-04-29T12:03:57;8.43;;;5.80;;
35743;SDS011;21867;52.012;4.324;2023-04-29T12:06:28;8.00;;;5.33;;
35743;SDS011;21867;52.012;4.324;2023-04-29T12:08:57;7.17;;;5.43;;
35743;SDS011;21867;52.012;4.324;2023-04-29T12:11:25;6.80;;;4.90;;
35743;SDS011;21867;52.012;4.324;2023-04-29T12:13:55;7.13;;;5.40;;
35743;SDS011;21867;52.012;4.324;2023-04-29T12:16:23;8.73;;;6.03;;
35743;SDS011;21867;52.012;4.324;2023-04-29T12:18:51;10.40;;;6.30;;
35743;SDS011;21867;52.012;4.324;2023-04-29T12:21:20;6.53;;;5.63;;
35743;SDS011;21867;52.012;4.324;2023-04-29T12:23:49;7.13;;;5.67;;
35743;SDS011;21867;52.012;4.324;2023-04-29T12:26:17;8.73;;;6.53;;
35743;SDS011;21867;52.012;4.324;2023-04-29T12:28:44;12.67;;;5.53;;
35743;SDS011;21867;52.012;4.324;2023-04-29T12:31:13;10.70;;;7.63;;
35743;SDS011;21867;52.012;4.324;2023-04-29T12:33:52;11.33;;;6.10;;
35743;SDS011;21867;52.012;4.324;2023-04-29T12:36:20;6.70;;;5.97;;
35743;SDS011;21867;52.012;4.324;2023-04-29T12:38:48;9.60;;;5.33;;
35743;SDS011;21867;52.012;4.324;2023-04-29T12:41:16;10.57;;;6.70;;
35743;SDS011;21867;52.012;4.324;2023-04-29T12:50:07;7.47;;;5.50;;
35743;SDS011;21867;52.012;4.324;2023-04-29T12:52:34;9.97;;;6.47;;
35743;SDS011;21867;52.012;4.324;2023-04-29T12:55:04;7.77;;;6.17;;
35743;SDS011;21867;52.012;4.324;2023-04-29T12:57:31;9.80;;;6.47;;
35743;SDS011;21867;52.012;4.324;2023-04-29T12:59:58;8.50;;;5.90;;
35743;SDS011;21867;52.012;4.324;2023-04-29T13:02:37;10.50;;;6.23;;
35743;SDS011;21867;52.012;4.324;2023-04-29T13:05:06;10.33;;;6.03;;
35743;SDS011;21867;52.012;4.324;2023-04-29T13:07:34;7.80;;;5.17;;
35743;SDS011;21867;52.012;4.324;2023-04-29T13:10:04;9.73;;;6.00;;
35743;SDS011;21867;52.012;4.324;2023-04-29T13:21:40;7.83;;;4.93;;
35743;SDS011;21867;52.012;4.324;2023-04-29T13:24:07;9.40;;;5.73;;
35743;SDS011;21867;52.012;4.324;2023-04-29T13:26:36;8.23;;;5.40;;
35743;SDS011;21867;52.012;4.324;2023-04-29T13:29:03;9.93;;;5.27;;
35743;SDS011;21867;52.012;4.324;2023-04-29T13:31:37;6.77;;;4.67;;
35743;SDS011;21867;52.012;4.324;2023-04-29T13:34:04;7.63;;;4.90;;
35743;SDS011;21867;52.012;4.324;2023-04-29T13:36:35;11.37;;;5.73;;
35743;SDS011;21867;52.012;4.324;2023-04-29T13:39:02;10.33;;;5.33;;
35743;SDS011;21867;52.012;4.324;2023-04-29T13:41:37;6.63;;;5.67;;
35743;SDS011;21867;52.012;4.324;2023-04-29T13:49:53;7.07;;;4.40;;
35743;SDS011;21867;52.012;4.324;2023-04-29T13:52:23;10.03;;;5.27;;
35743;SDS011;21867;52.012;4.324;2023-04-29T13:55:11;10.10;;;4.60;;
35743;SDS011;21867;52.012;4.324;2023-04-29T13:57:41;11.87;;;5.07;;
35743;SDS011;21867;52.012;4.324;2023-04-29T14:00:12;8.97;;;3.63;;
35743;SDS011;21867;52.012;4.324;2023-04-29T14:03:00;5.57;;;4.20;;
35743;SDS011;21867;52.012;4.324;2023-04-29T14:05:28;7.33;;;5.07;;
35743;SDS011;21867;52.012;4.324;2023-04-29T14:07:56;6.07;;;4.43;;
35743;SDS011;21867;52.012;4.324;2023-04-29T14:10:23;8.00;;;5.20;;
35743;SDS011;21867;52.012;4.324;2023-04-29T14:12:50;11.00;;;5.20;;
35743;SDS011;21867;52.012;4.324;2023-04-29T14:15:18;5.97;;;4.70;;
35743;SDS011;21867;52.012;4.324;2023-04-29T14:23:32;5.07;;;3.70;;
35743;SDS011;21867;52.012;4.324;2023-04-29T14:25:59;5.83;;;4.00;;
35743;SDS011;21867;52.012;4.324;2023-04-29T14:28:29;6.80;;;4.60;;
35743;SDS011;21867;52.012;4.324;2023-04-29T14:30:56;9.50;;;5.27;;
35743;SDS011;21867;52.012;4.324;2023-04-29T14:33:24;5.07;;;3.70;;
35743;SDS011;21867;52.012;4.324;2023-04-29T14:35:51;4.10;;;3.53;;
35743;SDS011;21867;52.012;4.324;2023-04-29T14:38:22;7.17;;;3.73;;
35743;SDS011;21867;52.012;4.324;2023-04-29T14:40:51;7.07;;;4.17;;
35743;SDS011;21867;52.012;4.324;2023-04-29T14:43:18;6.20;;;3.77;;
35743;SDS011;21867;52.012;4.324;2023-04-29T14:45:45;5.00;;;3.77;;
35743;SDS011;21867;52.012;4.324;2023-04-29T14:48:18;14.70;;;5.20;;
35743;SDS011;21867;52.012;4.324;2023-04-29T14:50:45;9.20;;;4.80;;
35743;SDS011;21867;52.012;4.324;2023-04-29T14:53:13;5.73;;;4.03;;
35743;SDS011;21867;52.012;4.324;2023-04-29T14:55:40;9.10;;;4.67;;
35743;SDS011;21867;52.012;4.324;2023-04-29T15:10:19;8.87;;;5.60;;
35743;SDS011;21867;52.012;4.324;2023-04-29T15:12:55;10.93;;;6.37;;
35743;SDS011;21867;52.012;4.324;2023-04-29T15:15:23;9.17;;;4.93;;
35743;SDS011;21867;52.012;4.324;2023-04-29T15:18:08;13.30;;;5.83;;
35743;SDS011;21867;52.012;4.324;2023-04-29T15:20:35;8.47;;;4.40;;
35743;SDS011;21867;52.012;4.324;2023-04-29T15:23:03;12.30;;;4.63;;
35743;SDS011;21867;52.012;4.324;2023-04-29T15:25:32;5.50;;;4.17;;
35743;SDS011;21867;52.012;4.324;2023-04-29T15:28:00;8.03;;;4.67;;
35743;SDS011;21867;52.012;4.324;2023-04-29T15:30:27;6.63;;;3.93;;
35743;SDS011;21867;52.012;4.324;2023-04-29T15:32:56;4.63;;;3.80;;
35743;SDS011;21867;52.012;4.324;2023-04-29T15:35:26;7.60;;;4.57;;
35743;SDS011;21867;52.012;4.324;2023-04-29T15:37:53;4.37;;;3.93;;
35743;SDS011;21867;52.012;4.324;2023-04-29T15:40:21;3.97;;;3.67;;
35743;SDS011;21867;52.012;4.324;2023-04-29T15:42:49;6.20;;;4.93;;
35743;SDS011;21867;52.012;4.324;2023-04-29T15:45:17;5.77;;;4.43;;
35743;SDS011;21867;52.012;4.324;2023-04-29T15:47:44;6.00;;;3.87;;
35743;SDS011;21867;52.012;4.324;2023-04-29T15:50:11;7.37;;;4.90;;
35743;SDS011;21867;52.012;4.324;2023-04-29T15:55:14;10.30;;;5.00;;
35743;SDS011;21867;52.012;4.324;2023-04-29T15:57:44;9.13;;;5.23;;
35743;SDS011;21867;52.012;4.324;2023-04-29T16:00:12;6.07;;;5.00;;
35743;SDS011;21867;52.012;4.324;2023-04-29T16:02:40;6.13;;;5.40;;
35743;SDS011;21867;52.012;4.324;2023-04-29T16:05:07;7.63;;;5.17;;
35743;SDS011;21867;52.012;4.324;2023-04-29T16:13:32;4.87;;;4.23;;
35743;SDS011;21867;52.012;4.324;2023-04-29T16:16:03;5.40;;;3.77;;
35743;SDS011;21867;52.012;4.324;2023-04-29T16:18:30;4.57;;;3.33;;
35743;SDS011;21867;52.012;4.324;2023-04-29T16:20:57;6.93;;;4.00;;
35743;SDS011;21867;52.012;4.324;2023-04-29T16:23:25;6.07;;;4.33;;
35743;SDS011;21867;52.012;4.324;2023-04-29T16:25:52;3.87;;;2.93;;
35743;SDS011;21867;52.012;4.324;2023-04-29T16:28:19;2.77;;;2.47;;
35743;SDS011;21867;52.012;4.324;2023-04-29T16:30:47;4.43;;;3.17;;
35743;SDS011;21867;52.012;4.324;2023-04-29T16:33:15;6.80;;;3.37;;
35743;SDS011;21867;52.012;4.324;2023-04-29T16:35:43;5.50;;;3.50;;
35743;SDS011;21867;52.012;4.324;2023-04-29T16:38:10;3.30;;;3.00;;
35743;SDS011;21867;52.012;4.324;2023-04-29T16:40:38;5.60;;;3.10;;
35743;SDS011;21867;52.012;4.324;2023-04-29T16:43:05;5.97;;;3.10;;
35743;SDS011;21867;52.012;4.324;2023-04-29T16:45:32;5.90;;;3.17;;
35743;SDS011;21867;52.012;4.324;2023-04-29T16:48:00;4.50;;;3.27;;
35743;SDS011;21867;52.012;4.324;2023-04-29T16:50:28;6.10;;;3.60;;
35743;SDS011;21867;52.012;4.324;2023-04-29T16:52:56;6.80;;;3.17;;
35743;SDS011;21867;52.012;4.324;2023-04-29T16:55:23;4.00;;;3.43;;
35743;SDS011;21867;52.012;4.324;2023-04-29T17:00:38;6.93;;;2.73;;
35743;SDS011;21867;52.012;4.324;2023-04-29T17:03:05;7.70;;;4.20;;
35743;SDS011;21867;52.012;4.324;2023-04-29T17:05:34;6.90;;;3.10;;
35743;SDS011;21867;52.012;4.324;2023-04-29T17:08:02;4.27;;;3.10;;
35743;SDS011;21867;52.012;4.324;2023-04-29T17:10:29;4.53;;;2.90;;
35743;SDS011;21867;52.012;4.324;2023-04-29T17:12:57;4.10;;;2.50;;
35743;SDS011;21867;52.012;4.324;2023-04-29T17:15:24;6.57;;;2.83;;
35743;SDS011;21867;52.012;4.324;2023-04-29T17:17:51;4.73;;;2.93;;
35743;SDS011;21867;52.012;4.324;2023-04-29T17:20:19;5.60;;;2.77;;
35743;SDS011;21867;52.012;4.324;2023-04-29T17:22:47;4.87;;;2.60;;
35743;SDS011;21867;52.012;4.324;2023-04-29T17:25:15;4.17;;;2.30;;
35743;SDS011;21867;52.012;4.324;2023-04-29T17:27:42;4.13;;;2.40;;
35743;SDS011;21867;52.012;4.324;2023-04-29T17:30:10;3.20;;;2.50;;
35743;SDS011;21867;52.012;4.324;2023-04-29T17:32:37;5.40;;;2.53;;
35743;SDS011;21867;52.012;4.324;2023-04-29T17:35:05;8.40;;;2.93;;
35743;SDS011;21867;52.012;4.324;2023-04-29T17:40:20;3.90;;;2.47;;
35743;SDS011;21867;52.012;4.324;2023-04-29T17:42:48;5.57;;;2.93;;
35743;SDS011;21867;52.012;4.324;2023-04-29T17:45:15;5.47;;;3.17;;
35743;SDS011;21867;52.012;4.324;2023-04-29T17:47:42;3.23;;;2.10;;
35743;SDS011;21867;52.012;4.324;2023-04-29T17:50:28;4.93;;;2.73;;
35743;SDS011;21867;52.012;4.324;2023-04-29T17:52:55;5.20;;;2.10;;
35743;SDS011;21867;52.012;4.324;2023-04-29T17:55:24;6.23;;;2.23;;
35743;SDS011;21867;52.012;4.324;2023-04-29T17:57:53;6.57;;;2.77;;
35743;SDS011;21867;52.012;4.324;2023-04-29T18:03:10;2.73;;;2.30;;
35743;SDS011;21867;52.012;4.324;2023-04-29T18:05:38;5.07;;;2.23;;
35743;SDS011;21867;52.012;4.324;2023-04-29T18:08:05;4.20;;;2.17;;
35743;SDS011;21867;52.012;4.324;2023-04-29T18:10:34;4.77;;;1.63;;
35743;SDS011;21867;52.012;4.324;2023-04-29T18:13:19;4.47;;;2.27;;
35743;SDS011;21867;52.012;4.324;2023-04-29T18:15:48;3.83;;;2.20;;
35743;SDS011;21867;52.012;4.324;2023-04-29T18:18:15;4.53;;;2.50;;
35743;SDS011;21867;52.012;4.324;2023-04-29T18:20:42;2.53;;;1.93;;
35743;SDS011;21867;52.012;4.324;2023-04-29T18:25:58;3.53;;;1.93;;
35743;SDS011;21867;52.012;4.324;2023-04-29T18:28:26;3.17;;;2.30;;
35743;SDS011;21867;52.012;4.324;2023-04-29T18:30:53;4.60;;;2.20;;
35743;SDS011;21867;52.012;4.324;2023-04-29T18:33:21;4.87;;;2.10;;
35743;SDS011;21867;52.012;4.324;2023-04-29T18:35:48;3.43;;;2.37;;
35743;SDS011;21867;52.012;4.324;2023-04-29T18:38:15;3.77;;;2.13;;
35743;SDS011;21867;52.012;4.324;2023-04-29T18:40:55;4.43;;;2.53;;
35743;SDS011;21867;52.012;4.324;2023-04-29T18:43:31;6.20;;;2.73;;
35743;SDS011;21867;52.012;4.324;2023-04-29T18:48:49;3.80;;;2.80;;
35743;SDS011;21867;52.012;4.324;2023-04-29T18:51:16;3.77;;;2.30;;
35743;SDS011;21867;52.012;4.324;2023-04-29T18:53:43;3.17;;;2.33;;
35743;SDS011;21867;52.012;4.324;2023-04-29T18:56:11;3.07;;;2.30;;
35743;SDS011;21867;52.012;4.324;2023-04-29T18:58:39;3.73;;;1.93;;
35743;SDS011;21867;52.012;4.324;2023-04-29T19:01:07;5.17;;;3.03;;
35743;SDS011;21867;52.012;4.324;2023-04-29T19:03:34;3.90;;;2.60;;
35743;SDS011;21867;52.012;4.324;2023-04-29T19:06:01;5.20;;;2.33;;
35743;SDS011;21867;52.012;4.324;2023-04-29T19:08:50;6.43;;;2.67;;
35743;SDS011;21867;52.012;4.324;2023-04-29T19:11:18;7.17;;;3.20;;
35743;SDS011;21867;52.012;4.324;2023-04-29T19:13:47;6.83;;;2.50;;
35743;SDS011;21867;52.012;4.324;2023-04-29T19:16:18;2.40;;;2.20;;
35743;SDS011;21867;52.012;4.324;2023-04-29T19:18:47;3.83;;;2.13;;
35743;SDS011;21867;52.012;4.324;2023-04-29T19:21:15;3.80;;;2.57;;
35743;SDS011;21867;52.012;4.324;2023-04-29T19:23:59;2.97;;;2.50;;
35743;SDS011;21867;52.012;4.324;2023-04-29T19:26:28;4.90;;;2.53;;
35743;SDS011;21867;52.012;4.324;2023-04-29T19:29:02;6.77;;;2.60;;
35743;SDS011;21867;52.012;4.324;2023-04-29T19:31:29;4.50;;;2.73;;
35743;SDS011;21867;52.012;4.324;2023-04-29T19:45:04;6.97;;;2.93;;
35743;SDS011;21867;52.012;4.324;2023-04-29T19:47:32;6.23;;;3.10;;
35743;SDS011;21867;52.012;4.324;2023-04-29T19:50:00;7.07;;;3.00;;
35743;SDS011;21867;52.012;4.324;2023-04-29T19:58:07;3.90;;;2.90;;
35743;SDS011;21867;52.012;4.324;2023-04-29T20:11:19;5.70;;;3.13;;
35743;SDS011;21867;52.012;4.324;2023-04-29T20:13:57;6.30;;;3.50;;
35743;SDS011;21867;52.012;4.324;2023-04-29T20:22:03;4.30;;;3.20;;
35743;SDS011;21867;52.012;4.324;2023-04-29T20:24:30;4.93;;;3.20;;
35743;SDS011;21867;52.012;4.324;2023-04-29T20:26:59;2.90;;;2.53;;
35743;SDS011;21867;52.012;4.324;2023-04-29T21:34:02;10.67;;;5.73;;
35743;SDS011;21867;52.012;4.324;2023-04-29T21:36:29;10.67;;;5.60;;
35743;SDS011;21867;52.012;4.324;2023-04-29T21:38:57;5.87;;;4.97;;
35743;SDS011;21867;52.012;4.324;2023-04-29T21:41:25;11.20;;;5.30;;
35743;SDS011;21867;52.012;4.324;2023-04-29T21:43:52;7.43;;;5.50;;
35743;SDS011;21867;52.012;4.324;2023-04-29T21:46:20;7.00;;;5.57;;
35743;SDS011;21867;52.012;4.324;2023-04-29T21:48:48;8.50;;;5.33;;
35743;SDS011;21867;52.012;4.324;2023-04-29T21:51:16;7.47;;;5.93;;
35743;SDS011;21867;52.012;4.324;2023-04-29T21:53:44;6.57;;;5.80;;
35743;SDS011;21867;52.012;4.324;2023-04-29T21:56:11;12.20;;;6.13;;
35743;SDS011;21867;52.012;4.324;2023-04-29T21:58:39;8.40;;;5.80;;
35743;SDS011;21867;52.012;4.324;2023-04-29T22:01:20;10.83;;;6.20;;
35743;SDS011;21867;52.012;4.324;2023-04-29T22:04:37;6.80;;;5.63;;
35743;SDS011;21867;52.012;4.324;2023-04-29T22:07:16;12.40;;;5.93;;
35743;SDS011;21867;52.012;4.324;2023-04-29T22:18:26;8.13;;;6.17;;
35743;SDS011;21867;52.012;4.324;2023-04-29T22:20:59;11.20;;;6.77;;
35743;SDS011;21867;52.012;4.324;2023-04-29T22:23:31;8.67;;;6.33;;
35743;SDS011;21867;52.012;4.324;2023-04-29T23:01:05;10.47;;;6.80;;
35743;SDS011;21867;52.012;4.324;2023-04-29T23:03:45;9.93;;;7.57;;
35743;SDS011;21867;52.012;4.324;2023-04-29T23:06:24;13.27;;;7.70;;
35743;SDS011;21867;52.012;4.324;2023-04-29T23:09:04;9.07;;;7.70;;
35743;SDS011;21867;52.012;4.324;2023-04-29T23:11:31;11.20;;;8.10;;
35743;SDS011;21867;52.012;4.324;2023-04-29T23:13:59;11.17;;;8.47;;
35743;SDS011;21867;52.012;4.324;2023-04-29T23:16:27;11.63;;;8.47;;
35743;SDS011;21867;52.012;4.324;2023-04-29T23:18:55;10.33;;;9.23;;
35743;SDS011;21867;52.012;4.324;2023-04-29T23:21:22;10.87;;;9.00;;
35743;SDS011;21867;52.012;4.324;2023-04-29T23:26:41;11.10;;;9.07;;
35743;SDS011;21867;52.012;4.324;2023-04-29T23:29:08;13.00;;;10.87;;
35743;SDS011;21867;52.012;4.324;2023-04-29T23:31:37;11.57;;;9.47;;
35743;SDS011;21867;52.012;4.324;2023-04-29T23:34:05;11.27;;;9.60;;
35743;SDS011;21867;52.012;4.324;2023-04-29T23:36:32;14.37;;;9.50;;
35743;SDS011;21867;52.012;4.324;2023-04-29T23:45:20;13.70;;;10.03;;
35743;SDS011;21867;52.012;4.324;2023-04-29T23:47:49;11.20;;;9.17;;
35743;SDS011;21867;52.012;4.324;2023-04-29T23:50:16;14.30;;;10.00;;
35743;SDS011;21867;52.012;4.324;2023-04-29T23:52:43;12.73;;;10.00;;